sensor_id;sensor_type;location;lat;lon;timestamp;pressure;altitude;pressure_sealevel;temperature;humidity
35023;BME280;21214;44.912;8.204;2023-03-03T00:01:31;99819.66;;;6.59;100.00
35023;BME280;21214;44.912;8.204;2023-03-03T00:03:57;99820.28;;;6.50;100.00
35023;BME280;21214;44.912;8.204;2023-03-03T00:06:22;99806.59;;;6.46;100.00
35023;BME280;21214;44.912;8.204;2023-03-03T00:08:49;99807.63;;;6.44;100.00
35023;BME280;21214;44.912;8.204;2023-03-03T00:11:14;99805.34;;;6.39;100.00
35023;BME280;21214;44.912;8.204;2023-03-03T00:13:43;99811.19;;;6.43;100.00
35023;BME280;21214;44.912;8.204;2023-03-03T00:16:15;99805.75;;;6.46;100.00
35023;BME280;21214;44.912;8.204;2023-03-03T00:18:44;99807.63;;;6.44;100.00
35023;BME280;21214;44.912;8.204;2023-03-03T00:21:31;99800.00;;;6.41;100.00
35023;BME280;21214;44.912;8.204;2023-03-03T00:24:38;99803.31;;;6.43;100.00
35023;BME280;21214;44.912;8.204;2023-03-03T00:26:45;99802.81;;;6.38;100.00
35023;BME280;21214;44.912;8.204;2023-03-03T00:29:28;99794.03;;;6.39;100.00
35023;BME280;21214;44.912;8.204;2023-03-03T00:31:55;99799.25;;;6.39;100.00
35023;BME280;21214;44.912;8.204;2023-03-03T00:34:24;99790.72;;;6.24;100.00
35023;BME280;21214;44.912;8.204;2023-03-03T00:36:54;99799.63;;;6.22;100.00
35023;BME280;21214;44.912;8.204;2023-03-03T00:41:54;99793.00;;;6.29;100.00
35023;BME280;21214;44.912;8.204;2023-03-03T00:46:49;99793.44;;;6.23;100.00
35023;BME280;21214;44.912;8.204;2023-03-03T00:49:22;99794.06;;;6.26;100.00
35023;BME280;21214;44.912;8.204;2023-03-03T00:51:50;99787.44;;;6.33;100.00
35023;BME280;21214;44.912;8.204;2023-03-03T00:54:16;99789.22;;;6.33;100.00
35023;BME280;21214;44.912;8.204;2023-03-03T00:56:41;99786.50;;;6.34;100.00
35023;BME280;21214;44.912;8.204;2023-03-03T00:59:07;99783.22;;;6.31;100.00
35023;BME280;21214;44.912;8.204;2023-03-03T01:01:32;99781.88;;;6.25;100.00
35023;BME280;21214;44.912;8.204;2023-03-03T01:03:58;99784.13;;;6.18;100.00
35023;BME280;21214;44.912;8.204;2023-03-03T01:06:23;99779.66;;;6.08;100.00
35023;BME280;21214;44.912;8.204;2023-03-03T01:08:49;99776.63;;;6.01;100.00
35023;BME280;21214;44.912;8.204;2023-03-03T01:11:16;99787.00;;;5.90;100.00
35023;BME280;21214;44.912;8.204;2023-03-03T01:13:44;99778.44;;;5.88;100.00
35023;BME280;21214;44.912;8.204;2023-03-03T01:16:10;99783.25;;;5.94;100.00
35023;BME280;21214;44.912;8.204;2023-03-03T01:18:35;99778.28;;;6.02;100.00
35023;BME280;21214;44.912;8.204;2023-03-03T01:21:01;99777.34;;;6.03;100.00
35023;BME280;21214;44.912;8.204;2023-03-03T01:23:27;99780.47;;;6.08;100.00
35023;BME280;21214;44.912;8.204;2023-03-03T01:25:52;99786.56;;;6.09;100.00
35023;BME280;21214;44.912;8.204;2023-03-03T01:28:18;99783.75;;;6.12;100.00
35023;BME280;21214;44.912;8.204;2023-03-03T01:30:43;99780.28;;;6.11;100.00
35023;BME280;21214;44.912;8.204;2023-03-03T01:33:09;99778.59;;;6.10;100.00
35023;BME280;21214;44.912;8.204;2023-03-03T01:35:34;99778.59;;;6.10;100.00
35023;BME280;21214;44.912;8.204;2023-03-03T01:38:00;99775.03;;;6.11;100.00
35023;BME280;21214;44.912;8.204;2023-03-03T01:40:27;99779.53;;;6.09;100.00
35023;BME280;21214;44.912;8.204;2023-03-03T01:42:53;99769.81;;;6.11;100.00
35023;BME280;21214;44.912;8.204;2023-03-03T01:47:45;99771.25;;;6.15;100.00
35023;BME280;21214;44.912;8.204;2023-03-03T01:50:13;99769.81;;;6.11;100.00
35023;BME280;21214;44.912;8.204;2023-03-03T01:52:40;99771.69;;;6.09;100.00
35023;BME280;21214;44.912;8.204;2023-03-03T01:55:17;99767.72;;;6.04;100.00
35023;BME280;21214;44.912;8.204;2023-03-03T01:57:45;99763.25;;;5.93;100.00
35023;BME280;21214;44.912;8.204;2023-03-03T02:00:11;99767.53;;;5.94;100.00
35023;BME280;21214;44.912;8.204;2023-03-03T02:02:41;99770.59;;;5.88;100.00
35023;BME280;21214;44.912;8.204;2023-03-03T02:05:07;99762.72;;;5.88;100.00
35023;BME280;21214;44.912;8.204;2023-03-03T02:07:33;99753.28;;;5.86;100.00
35023;BME280;21214;44.912;8.204;2023-03-03T02:13:10;99745.75;;;5.81;100.00
35023;BME280;21214;44.912;8.204;2023-03-03T02:17:45;99749.31;;;5.80;100.00
35023;BME280;21214;44.912;8.204;2023-03-03T02:23:41;99740.69;;;5.78;100.00
35023;BME280;21214;44.912;8.204;2023-03-03T02:28:22;99737.16;;;5.79;100.00
35023;BME280;21214;44.912;8.204;2023-03-03T02:30:49;99728.59;;;5.77;100.00
35023;BME280;21214;44.912;8.204;2023-03-03T02:33:14;99730.03;;;5.81;100.00
35023;BME280;21214;44.912;8.204;2023-03-03T02:35:40;99728.34;;;5.80;100.00
35023;BME280;21214;44.912;8.204;2023-03-03T02:38:08;99739.06;;;5.77;100.00
35023;BME280;21214;44.912;8.204;2023-03-03T02:40:37;99732.25;;;5.74;100.00
35023;BME280;21214;44.912;8.204;2023-03-03T02:43:05;99722.28;;;5.67;100.00
35023;BME280;21214;44.912;8.204;2023-03-03T02:45:31;99734.69;;;5.65;100.00
35023;BME280;21214;44.912;8.204;2023-03-03T02:47:56;99723.13;;;5.67;100.00
35023;BME280;21214;44.912;8.204;2023-03-03T02:50:22;99718.75;;;5.68;100.00
35023;BME280;21214;44.912;8.204;2023-03-03T02:52:47;99723.53;;;5.74;100.00
35023;BME280;21214;44.912;8.204;2023-03-03T02:55:12;99726.59;;;5.68;100.00
35023;BME280;21214;44.912;8.204;2023-03-03T02:57:38;99726.41;;;5.71;100.00
35023;BME280;21214;44.912;8.204;2023-03-03T03:00:04;99729.63;;;5.74;100.00
35023;BME280;21214;44.912;8.204;2023-03-03T03:02:29;99726.91;;;5.76;100.00
35023;BME280;21214;44.912;8.204;2023-03-03T03:04:56;99724.47;;;5.73;100.00
35023;BME280;21214;44.912;8.204;2023-03-03T03:07:23;99718.97;;;5.65;100.00
35023;BME280;21214;44.912;8.204;2023-03-03T03:09:48;99726.50;;;5.57;100.00
35023;BME280;21214;44.912;8.204;2023-03-03T03:12:14;99716.69;;;5.48;100.00
35023;BME280;21214;44.912;8.204;2023-03-03T03:14:40;99723.38;;;5.52;100.00
35023;BME280;21214;44.912;8.204;2023-03-03T03:17:06;99727.38;;;5.45;100.00
35023;BME280;21214;44.912;8.204;2023-03-03T03:19:31;99726.44;;;5.46;100.00
35023;BME280;21214;44.912;8.204;2023-03-03T03:21:59;99721.81;;;5.36;100.00
35023;BME280;21214;44.912;8.204;2023-03-03T03:24:25;99720.03;;;5.37;100.00
35023;BME280;21214;44.912;8.204;2023-03-03T03:26:56;99715.88;;;5.34;100.00
35023;BME280;21214;44.912;8.204;2023-03-03T03:29:22;99711.88;;;5.42;100.00
35023;BME280;21214;44.912;8.204;2023-03-03T03:31:48;99708.31;;;5.43;100.00
35023;BME280;21214;44.912;8.204;2023-03-03T03:34:13;99710.63;;;5.34;100.00
35023;BME280;21214;44.912;8.204;2023-03-03T03:36:38;99710.72;;;5.33;100.00
35023;BME280;21214;44.912;8.204;2023-03-03T03:39:04;99707.06;;;5.35;100.00
35023;BME280;21214;44.912;8.204;2023-03-03T03:41:31;99713.25;;;5.34;100.00
35023;BME280;21214;44.912;8.204;2023-03-03T03:43:57;99702.03;;;5.32;100.00
35023;BME280;21214;44.912;8.204;2023-03-03T03:46:23;99702.78;;;5.34;100.00
35023;BME280;21214;44.912;8.204;2023-03-03T03:48:48;99702.56;;;5.38;100.00
35023;BME280;21214;44.912;8.204;2023-03-03T03:51:16;99703.50;;;5.36;100.00
35023;BME280;21214;44.912;8.204;2023-03-03T03:53:41;99701.63;;;5.39;100.00
35023;BME280;21214;44.912;8.204;2023-03-03T03:56:07;99698.06;;;5.40;100.00
35023;BME280;21214;44.912;8.204;2023-03-03T03:58:32;99701.00;;;5.35;100.00
35023;BME280;21214;44.912;8.204;2023-03-03T04:01:05;99699.31;;;5.34;100.00
35023;BME280;21214;44.912;8.204;2023-03-03T04:03:33;99698.91;;;5.27;100.00
35023;BME280;21214;44.912;8.204;2023-03-03T04:05:59;99700.78;;;5.25;100.00
35023;BME280;21214;44.912;8.204;2023-03-03T04:08:25;99703.09;;;5.17;100.00
35023;BME280;21214;44.912;8.204;2023-03-03T04:10:50;99704.47;;;5.10;100.00
35023;BME280;21214;44.912;8.204;2023-03-03T04:13:16;99695.16;;;5.06;100.00
35023;BME280;21214;44.912;8.204;2023-03-03T04:15:41;99706.44;;;4.94;100.00
35023;BME280;21214;44.912;8.204;2023-03-03T04:18:07;99701.22;;;4.94;100.00
35023;BME280;21214;44.912;8.204;2023-03-03T04:20:32;99699.72;;;4.90;100.00
35023;BME280;21214;44.912;8.204;2023-03-03T04:22:58;99700.97;;;4.84;100.00
35023;BME280;21214;44.912;8.204;2023-03-03T04:25:24;99697.25;;;4.88;100.00
35023;BME280;21214;44.912;8.204;2023-03-03T04:27:51;99693.25;;;4.83;100.00
35023;BME280;21214;44.912;8.204;2023-03-03T04:30:19;99689.69;;;4.84;100.00
35023;BME280;21214;44.912;8.204;2023-03-03T04:32:47;99698.69;;;4.80;100.00
35023;BME280;21214;44.912;8.204;2023-03-03T04:35:15;99699.00;;;4.75;100.00
35023;BME280;21214;44.912;8.204;2023-03-03T04:37:42;99699.94;;;4.74;100.00
35023;BME280;21214;44.912;8.204;2023-03-03T04:40:08;99701.94;;;4.71;100.00
35023;BME280;21214;44.912;8.204;2023-03-03T04:42:35;99696.56;;;4.72;100.00
35023;BME280;21214;44.912;8.204;2023-03-03T04:45:01;99696.56;;;4.72;100.00
35023;BME280;21214;44.912;8.204;2023-03-03T04:47:27;99702.88;;;4.70;100.00
35023;BME280;21214;44.912;8.204;2023-03-03T04:49:53;99697.63;;;4.70;100.00
35023;BME280;21214;44.912;8.204;2023-03-03T04:52:19;99705.56;;;4.68;100.00
35023;BME280;21214;44.912;8.204;2023-03-03T04:54:45;99696.69;;;4.71;100.00
35023;BME280;21214;44.912;8.204;2023-03-03T04:57:10;99697.81;;;4.67;100.00
35023;BME280;21214;44.912;8.204;2023-03-03T04:59:35;99700.44;;;4.67;100.00
35023;BME280;21214;44.912;8.204;2023-03-03T05:02:01;99694.91;;;4.59;100.00
35023;BME280;21214;44.912;8.204;2023-03-03T05:04:26;99698.75;;;4.53;100.00
35023;BME280;21214;44.912;8.204;2023-03-03T05:06:51;99700.53;;;4.52;100.00
35023;BME280;21214;44.912;8.204;2023-03-03T05:09:17;99695.50;;;4.49;100.00
35023;BME280;21214;44.912;8.204;2023-03-03T05:11:42;99694.25;;;4.55;100.00
35023;BME280;21214;44.912;8.204;2023-03-03T05:14:07;99689.34;;;4.50;100.00
35023;BME280;21214;44.912;8.204;2023-03-03T05:16:33;99695.72;;;4.46;100.00
35023;BME280;21214;44.912;8.204;2023-03-03T05:18:58;99695.88;;;4.43;100.00
35023;BME280;21214;44.912;8.204;2023-03-03T05:21:24;99694.81;;;4.33;100.00
35023;BME280;21214;44.912;8.204;2023-03-03T05:23:49;99693.75;;;4.23;100.00
35023;BME280;21214;44.912;8.204;2023-03-03T05:26:15;99689.38;;;4.24;100.00
35023;BME280;21214;44.912;8.204;2023-03-03T05:28:40;99693.31;;;4.17;100.00
35023;BME280;21214;44.912;8.204;2023-03-03T05:31:06;99692.00;;;4.24;100.00
35023;BME280;21214;44.912;8.204;2023-03-03T05:33:31;99684.34;;;4.21;100.00
35023;BME280;21214;44.912;8.204;2023-03-03T05:35:56;99687.16;;;4.18;100.00
35023;BME280;21214;44.912;8.204;2023-03-03T05:38:22;99696.66;;;4.19;100.00
35023;BME280;21214;44.912;8.204;2023-03-03T05:40:48;99693.41;;;4.15;100.00
35023;BME280;21214;44.912;8.204;2023-03-03T05:43:13;99691.41;;;4.19;100.00
35023;BME280;21214;44.912;8.204;2023-03-03T05:45:39;99691.00;;;4.12;100.00
35023;BME280;21214;44.912;8.204;2023-03-03T05:48:04;99694.53;;;4.11;100.00
35023;BME280;21214;44.912;8.204;2023-03-03T05:50:30;99691.41;;;4.06;100.00
35023;BME280;21214;44.912;8.204;2023-03-03T05:52:56;99685.06;;;3.96;100.00
35023;BME280;21214;44.912;8.204;2023-03-03T05:55:21;99693.13;;;3.93;100.00
35023;BME280;21214;44.912;8.204;2023-03-03T05:57:47;99690.69;;;3.90;100.00
35023;BME280;21214;44.912;8.204;2023-03-03T06:00:13;99689.03;;;3.89;100.00
35023;BME280;21214;44.912;8.204;2023-03-03T06:02:38;99685.66;;;3.87;100.00
35023;BME280;21214;44.912;8.204;2023-03-03T06:05:04;99687.34;;;3.88;100.00
35023;BME280;21214;44.912;8.204;2023-03-03T06:07:30;99678.97;;;3.83;100.00
35023;BME280;21214;44.912;8.204;2023-03-03T06:09:55;99676.38;;;3.83;100.00
35023;BME280;21214;44.912;8.204;2023-03-03T06:12:21;99673.31;;;3.76;100.00
35023;BME280;21214;44.912;8.204;2023-03-03T06:14:46;99679.53;;;3.74;100.00
35023;BME280;21214;44.912;8.204;2023-03-03T06:17:12;99680.84;;;3.81;100.00
35023;BME280;21214;44.912;8.204;2023-03-03T06:19:37;99677.28;;;3.82;100.00
35023;BME280;21214;44.912;8.204;2023-03-03T06:22:03;99678.59;;;3.89;100.00
35023;BME280;21214;44.912;8.204;2023-03-03T06:24:28;99685.28;;;3.93;100.00
35023;BME280;21214;44.912;8.204;2023-03-03T06:26:56;99693.13;;;3.93;100.00
35023;BME280;21214;44.912;8.204;2023-03-03T06:29:22;99698.88;;;3.98;100.00
35023;BME280;21214;44.912;8.204;2023-03-03T06:31:47;99690.19;;;3.97;100.00
35023;BME280;21214;44.912;8.204;2023-03-03T06:34:12;99691.97;;;3.97;100.00
35023;BME280;21214;44.912;8.204;2023-03-03T06:36:38;99691.28;;;4.07;100.00
35023;BME280;21214;44.912;8.204;2023-03-03T06:39:03;99693.03;;;4.07;100.00
35023;BME280;21214;44.912;8.204;2023-03-03T06:41:29;99690.56;;;4.05;100.00
35023;BME280;21214;44.912;8.204;2023-03-03T06:43:55;99698.28;;;4.07;100.00
35023;BME280;21214;44.912;8.204;2023-03-03T06:46:20;99701.63;;;4.09;100.00
35023;BME280;21214;44.912;8.204;2023-03-03T06:48:46;99698.63;;;4.15;100.00
35023;BME280;21214;44.912;8.204;2023-03-03T06:51:19;99699.81;;;4.24;100.00
35023;BME280;21214;44.912;8.204;2023-03-03T06:53:47;99706.75;;;4.37;100.00
35023;BME280;21214;44.912;8.204;2023-03-03T06:56:13;99705.63;;;4.41;100.00
35023;BME280;21214;44.912;8.204;2023-03-03T06:58:39;99701.56;;;4.50;100.00
35023;BME280;21214;44.912;8.204;2023-03-03T07:01:04;99719.25;;;4.59;100.00
35023;BME280;21214;44.912;8.204;2023-03-03T07:03:36;99714.66;;;4.63;100.00
35023;BME280;21214;44.912;8.204;2023-03-03T07:06:01;99716.22;;;4.52;100.00
35023;BME280;21214;44.912;8.204;2023-03-03T07:08:38;99716.00;;;4.56;100.00
35023;BME280;21214;44.912;8.204;2023-03-03T07:11:07;99715.88;;;4.44;100.00
35023;BME280;21214;44.912;8.204;2023-03-03T07:13:33;99713.88;;;4.35;100.00
35023;BME280;21214;44.912;8.204;2023-03-03T07:15:59;99709.75;;;4.31;100.00
35023;BME280;21214;44.912;8.204;2023-03-03T07:18:39;99711.03;;;4.38;100.00
35023;BME280;21214;44.912;8.204;2023-03-03T07:21:07;99711.16;;;4.49;100.00
35023;BME280;21214;44.912;8.204;2023-03-03T07:23:37;99701.78;;;4.60;100.00
35023;BME280;21214;44.912;8.204;2023-03-03T07:26:14;99705.78;;;4.78;100.00
35023;BME280;21214;44.912;8.204;2023-03-03T07:28:41;99713.13;;;4.85;100.00
35023;BME280;21214;44.912;8.204;2023-03-03T07:31:16;99713.75;;;5.02;100.00
35023;BME280;21214;44.912;8.204;2023-03-03T07:33:46;99715.44;;;5.15;100.00
35023;BME280;21214;44.912;8.204;2023-03-03T07:36:21;99709.56;;;5.24;100.00
35023;BME280;21214;44.912;8.204;2023-03-03T07:38:51;99719.84;;;5.27;100.00
35023;BME280;21214;44.912;8.204;2023-03-03T07:41:17;99717.75;;;5.32;100.00
35023;BME280;21214;44.912;8.204;2023-03-03T07:46:35;99722.22;;;5.56;100.00
35023;BME280;21214;44.912;8.204;2023-03-03T07:49:08;99719.16;;;5.62;100.00
35023;BME280;21214;44.912;8.204;2023-03-03T07:51:39;99719.75;;;5.78;100.00
35023;BME280;21214;44.912;8.204;2023-03-03T07:56:54;99719.72;;;6.03;100.00
35023;BME280;21214;44.912;8.204;2023-03-03T07:59:21;99724.75;;;6.06;100.00
35023;BME280;21214;44.912;8.204;2023-03-03T08:01:52;99730.66;;;6.21;100.00
35023;BME280;21214;44.912;8.204;2023-03-03T08:04:20;99726.16;;;6.23;100.00
35023;BME280;21214;44.912;8.204;2023-03-03T08:06:51;99725.88;;;6.39;100.00
35023;BME280;21214;44.912;8.204;2023-03-03T08:14:11;99730.72;;;6.56;100.00
35023;BME280;21214;44.912;8.204;2023-03-03T08:16:39;99738.22;;;6.61;100.00
35023;BME280;21214;44.912;8.204;2023-03-03T08:19:04;99747.16;;;6.58;100.00
35023;BME280;21214;44.912;8.204;2023-03-03T08:21:30;99741.66;;;6.50;100.00
35023;BME280;21214;44.912;8.204;2023-03-03T08:23:56;99737.34;;;6.49;100.00
35023;BME280;21214;44.912;8.204;2023-03-03T08:26:22;99747.38;;;6.55;100.00
35023;BME280;21214;44.912;8.204;2023-03-03T08:28:47;99743.81;;;6.56;100.00
35023;BME280;21214;44.912;8.204;2023-03-03T08:31:13;99740.53;;;6.41;100.00
35023;BME280;21214;44.912;8.204;2023-03-03T08:33:39;99736.59;;;6.36;100.00
35023;BME280;21214;44.912;8.204;2023-03-03T08:36:05;99738.19;;;6.49;100.00
35023;BME280;21214;44.912;8.204;2023-03-03T08:38:30;99735.50;;;6.62;100.00
35023;BME280;21214;44.912;8.204;2023-03-03T08:40:55;99735.78;;;6.70;100.00
35023;BME280;21214;44.912;8.204;2023-03-03T08:43:21;99740.78;;;6.73;100.00
35023;BME280;21214;44.912;8.204;2023-03-03T08:45:48;99735.09;;;6.79;100.00
35023;BME280;21214;44.912;8.204;2023-03-03T08:48:14;99737.72;;;6.90;100.00
35023;BME280;21214;44.912;8.204;2023-03-03T08:50:40;99734.28;;;7.01;100.00
35023;BME280;21214;44.912;8.204;2023-03-03T08:53:06;99735.13;;;7.02;100.00
35023;BME280;21214;44.912;8.204;2023-03-03T08:55:31;99734.56;;;7.09;100.00
35023;BME280;21214;44.912;8.204;2023-03-03T08:57:57;99732.06;;;7.19;100.00
35023;BME280;21214;44.912;8.204;2023-03-03T09:00:22;99740.19;;;7.27;100.00
35023;BME280;21214;44.912;8.204;2023-03-03T09:02:48;99734.47;;;7.33;100.00
35023;BME280;21214;44.912;8.204;2023-03-03T09:05:14;99744.75;;;7.36;100.00
35023;BME280;21214;44.912;8.204;2023-03-03T09:07:40;99738.41;;;7.27;100.00
35023;BME280;21214;44.912;8.204;2023-03-03T09:10:06;99749.28;;;7.23;100.00
35023;BME280;21214;44.912;8.204;2023-03-03T09:12:38;99741.88;;;7.28;100.00
35023;BME280;21214;44.912;8.204;2023-03-03T09:15:15;99745.94;;;7.32;100.00
35023;BME280;21214;44.912;8.204;2023-03-03T09:17:42;99749.03;;;7.48;100.00
35023;BME280;21214;44.912;8.204;2023-03-03T09:22:42;99754.53;;;7.67;100.00
35023;BME280;21214;44.912;8.204;2023-03-03T09:25:30;99752.41;;;7.72;100.00
35023;BME280;21214;44.912;8.204;2023-03-03T09:27:57;99745.94;;;7.88;100.00
35023;BME280;21214;44.912;8.204;2023-03-03T09:32:48;99745.47;;;7.94;100.00
35023;BME280;21214;44.912;8.204;2023-03-03T09:37:54;99750.91;;;8.13;100.00
35023;BME280;21214;44.912;8.204;2023-03-03T09:43:11;99757.59;;;8.39;100.00
35023;BME280;21214;44.912;8.204;2023-03-03T09:45:49;99746.47;;;8.47;100.00
35023;BME280;21214;44.912;8.204;2023-03-03T09:56:08;99758.41;;;8.83;100.00
35023;BME280;21214;44.912;8.204;2023-03-03T10:03:56;99753.72;;;9.07;100.00
35023;BME280;21214;44.912;8.204;2023-03-03T10:06:32;99752.94;;;9.16;100.00
35023;BME280;21214;44.912;8.204;2023-03-03T10:11:36;99758.41;;;9.24;100.00
35023;BME280;21214;44.912;8.204;2023-03-03T10:22:15;99742.59;;;9.55;100.00
35023;BME280;21214;44.912;8.204;2023-03-03T10:29:35;99743.94;;;9.70;100.00
35023;BME280;21214;44.912;8.204;2023-03-03T10:43:19;99741.09;;;9.92;100.00
35023;BME280;21214;44.912;8.204;2023-03-03T10:50:55;99742.25;;;10.09;100.00
35023;BME280;21214;44.912;8.204;2023-03-03T10:53:30;99746.88;;;10.16;100.00
35023;BME280;21214;44.912;8.204;2023-03-03T10:58:36;99740.13;;;10.23;100.00
35023;BME280;21214;44.912;8.204;2023-03-03T11:03:47;99737.06;;;10.38;100.00
35023;BME280;21214;44.912;8.204;2023-03-03T11:06:21;99742.63;;;10.44;100.00
35023;BME280;21214;44.912;8.204;2023-03-03T11:08:57;99733.19;;;10.51;100.00
35023;BME280;21214;44.912;8.204;2023-03-03T11:27:16;99704.69;;;10.93;100.00
35023;BME280;21214;44.912;8.204;2023-03-03T11:32:30;99703.84;;;11.12;100.00
35023;BME280;21214;44.912;8.204;2023-03-03T11:35:01;99704.25;;;11.17;100.00
35023;BME280;21214;44.912;8.204;2023-03-03T11:37:35;99695.88;;;11.22;100.00
35023;BME280;21214;44.912;8.204;2023-03-03T11:40:09;99700.47;;;11.29;98.63
35023;BME280;21214;44.912;8.204;2023-03-03T11:45:20;99683.28;;;11.43;98.56
35023;BME280;21214;44.912;8.204;2023-03-03T11:47:56;99682.44;;;11.52;96.26
35023;BME280;21214;44.912;8.204;2023-03-03T11:50:57;99687.91;;;11.68;97.49
35023;BME280;21214;44.912;8.204;2023-03-03T11:55:47;99679.19;;;11.95;96.95
35023;BME280;21214;44.912;8.204;2023-03-03T12:03:28;99666.84;;;12.31;95.64
35023;BME280;21214;44.912;8.204;2023-03-03T12:08:46;99666.00;;;12.48;90.67
35023;BME280;21214;44.912;8.204;2023-03-03T12:24:15;99648.38;;;13.08;87.98
35023;BME280;21214;44.912;8.204;2023-03-03T12:26:51;99634.41;;;13.16;86.21
35023;BME280;21214;44.912;8.204;2023-03-03T12:37:14;99628.75;;;13.45;81.53
35023;BME280;21214;44.912;8.204;2023-03-03T12:42:37;99622.50;;;13.62;79.21
35023;BME280;21214;44.912;8.204;2023-03-03T12:50:08;99614.44;;;13.72;78.85
35023;BME280;21214;44.912;8.204;2023-03-03T12:55:13;99617.47;;;13.93;80.27
35023;BME280;21214;44.912;8.204;2023-03-03T13:00:23;99607.88;;;14.16;77.42
35023;BME280;21214;44.912;8.204;2023-03-03T13:05:33;99607.56;;;14.35;75.79
35023;BME280;21214;44.912;8.204;2023-03-03T13:28:09;99585.97;;;14.79;78.27
35023;BME280;21214;44.912;8.204;2023-03-03T13:30:37;99594.63;;;14.89;77.98
35023;BME280;21214;44.912;8.204;2023-03-03T13:33:09;99580.81;;;14.94;76.53
35023;BME280;21214;44.912;8.204;2023-03-03T13:35:55;99584.25;;;15.02;76.34
35023;BME280;21214;44.912;8.204;2023-03-03T13:38:29;99584.88;;;15.21;73.62
35023;BME280;21214;44.912;8.204;2023-03-03T13:43:42;99583.44;;;15.49;73.80
35023;BME280;21214;44.912;8.204;2023-03-03T13:49:05;99588.34;;;15.68;73.21
35023;BME280;21214;44.912;8.204;2023-03-03T13:51:52;99584.00;;;15.75;72.87
35023;BME280;21214;44.912;8.204;2023-03-03T14:07:20;99573.78;;;16.10;67.57
35023;BME280;21214;44.912;8.204;2023-03-03T14:09:50;99570.16;;;16.03;68.59
35023;BME280;21214;44.912;8.204;2023-03-03T14:19:56;99561.84;;;15.44;69.12
35023;BME280;21214;44.912;8.204;2023-03-03T14:22:26;99556.00;;;15.18;70.52
35023;BME280;21214;44.912;8.204;2023-03-03T14:27:53;99552.56;;;14.93;73.25
35023;BME280;21214;44.912;8.204;2023-03-03T14:35:28;99555.44;;;14.75;73.64
35023;BME280;21214;44.912;8.204;2023-03-03T14:37:54;99551.63;;;14.69;73.97
35023;BME280;21214;44.912;8.204;2023-03-03T14:40:32;99559.28;;;14.56;73.56
35023;BME280;21214;44.912;8.204;2023-03-03T14:43:02;99550.19;;;14.43;73.79
35023;BME280;21214;44.912;8.204;2023-03-03T14:50:39;99554.50;;;14.19;75.29
35023;BME280;21214;44.912;8.204;2023-03-03T14:53:10;99546.16;;;14.14;75.94
35023;BME280;21214;44.912;8.204;2023-03-03T14:55:38;99542.19;;;14.02;77.66
35023;BME280;21214;44.912;8.204;2023-03-03T14:58:07;99551.47;;;13.98;78.95
35023;BME280;21214;44.912;8.204;2023-03-03T15:00:32;99549.16;;;13.95;79.14
35023;BME280;21214;44.912;8.204;2023-03-03T15:03:02;99539.53;;;13.94;79.92
35023;BME280;21214;44.912;8.204;2023-03-03T15:05:35;99546.50;;;13.95;80.21
35023;BME280;21214;44.912;8.204;2023-03-03T15:10:29;99544.81;;;13.86;78.92
35023;BME280;21214;44.912;8.204;2023-03-03T15:12:55;99542.53;;;13.83;79.71
35023;BME280;21214;44.912;8.204;2023-03-03T15:15:21;99547.00;;;13.82;80.78
35023;BME280;21214;44.912;8.204;2023-03-03T15:25:30;99536.19;;;13.76;80.77
35023;BME280;21214;44.912;8.204;2023-03-03T15:30:24;99542.66;;;13.73;81.07
35023;BME280;21214;44.912;8.204;2023-03-03T15:37:52;99538.81;;;13.68;80.53
35023;BME280;21214;44.912;8.204;2023-03-03T15:48:00;99537.66;;;13.54;81.26
35023;BME280;21214;44.912;8.204;2023-03-03T16:00:48;99544.25;;;13.42;81.58
35023;BME280;21214;44.912;8.204;2023-03-03T16:03:20;99536.75;;;13.37;81.14
35023;BME280;21214;44.912;8.204;2023-03-03T16:05:52;99537.09;;;13.34;80.91
35023;BME280;21214;44.912;8.204;2023-03-03T16:08:25;99539.06;;;13.32;80.27
35023;BME280;21214;44.912;8.204;2023-03-03T16:11:07;99548.19;;;13.30;79.41
35023;BME280;21214;44.912;8.204;2023-03-03T16:23:48;99553.25;;;13.15;79.14
35023;BME280;21214;44.912;8.204;2023-03-03T16:31:53;99559.47;;;13.06;80.18
35023;BME280;21214;44.912;8.204;2023-03-03T16:34:25;99558.09;;;13.02;80.54
35023;BME280;21214;44.912;8.204;2023-03-03T16:37:06;99561.09;;;12.99;80.96
35023;BME280;21214;44.912;8.204;2023-03-03T16:42:29;99568.00;;;12.92;81.07
35023;BME280;21214;44.912;8.204;2023-03-03T16:52:32;99570.56;;;12.76;83.21
35023;BME280;21214;44.912;8.204;2023-03-03T16:55:04;99578.78;;;12.72;83.74
35023;BME280;21214;44.912;8.204;2023-03-03T16:57:38;99586.72;;;12.64;83.87
35023;BME280;21214;44.912;8.204;2023-03-03T17:28:14;99616.25;;;12.16;87.79
35023;BME280;21214;44.912;8.204;2023-03-03T17:30:52;99615.88;;;12.11;88.24
35023;BME280;21214;44.912;8.204;2023-03-03T17:34:26;99625.91;;;12.08;88.53
35023;BME280;21214;44.912;8.204;2023-03-03T17:41:31;99629.59;;;11.97;89.21
35023;BME280;21214;44.912;8.204;2023-03-03T18:09:12;99660.19;;;11.45;94.85
35023;BME280;21214;44.912;8.204;2023-03-03T18:19:29;99674.75;;;11.22;97.81
35023;BME280;21214;44.912;8.204;2023-03-03T18:21:58;99683.94;;;11.18;98.21
35023;BME280;21214;44.912;8.204;2023-03-03T18:24:33;99679.25;;;11.12;99.09
35023;BME280;21214;44.912;8.204;2023-03-03T18:30:12;99681.06;;;11.01;100.00
35023;BME280;21214;44.912;8.204;2023-03-03T18:32:39;99681.34;;;10.98;100.00
35023;BME280;21214;44.912;8.204;2023-03-03T18:35:20;99689.56;;;10.95;100.00
35023;BME280;21214;44.912;8.204;2023-03-03T18:37:45;99684.84;;;10.89;100.00
35023;BME280;21214;44.912;8.204;2023-03-03T18:42:40;99690.69;;;10.83;100.00
35023;BME280;21214;44.912;8.204;2023-03-03T18:45:48;99689.28;;;10.79;100.00
35023;BME280;21214;44.912;8.204;2023-03-03T18:55:38;99694.03;;;10.47;100.00
35023;BME280;21214;44.912;8.204;2023-03-03T19:00:52;99711.22;;;10.32;100.00
35023;BME280;21214;44.912;8.204;2023-03-03T19:05:50;99704.84;;;10.24;100.00
35023;BME280;21214;44.912;8.204;2023-03-03T19:08:26;99704.28;;;10.21;100.00
35023;BME280;21214;44.912;8.204;2023-03-03T19:10:59;99712.59;;;10.16;100.00